createdAt,value
2018-05-10T00:00:15.620Z,74.86
2018-05-10T00:02:43.238Z,77.80
2018-05-10T00:05:10.859Z,79.38
2018-05-10T00:07:38.557Z,79.76
2018-05-10T00:10:06.211Z,82.83
2018-05-10T00:12:33.855Z,83.13
2018-05-10T00:15:01.591Z,82.55
2018-05-10T00:17:29.305Z,79.82
2018-05-10T00:19:57.037Z,81.53
2018-05-10T00:22:24.705Z,83.47
2018-05-10T00:24:52.371Z,85.92
2018-05-10T00:27:20.029Z,85.20
2018-05-10T00:29:47.721Z,85.66
2018-05-10T00:32:15.341Z,84.37
2018-05-10T00:34:43.011Z,82.29
2018-05-10T00:37:10.630Z,83.23
2018-05-10T00:39:38.281Z,83.62
2018-05-10T00:42:05.981Z,82.38
2018-05-10T00:44:33.650Z,82.81
2018-05-10T00:47:01.362Z,84.56
2018-05-10T00:49:28.993Z,85.34
2018-05-10T00:51:56.601Z,85.75
2018-05-10T00:54:35.957Z,86.64
2018-05-10T00:57:03.578Z,86.77
2018-05-10T00:59:31.301Z,87.53
2018-05-10T01:01:59.021Z,87.56
2018-05-10T01:04:26.633Z,87.25
2018-05-10T01:06:54.270Z,86.44
2018-05-10T01:09:21.920Z,85.54
2018-05-10T01:11:49.593Z,84.02
2018-05-10T01:14:17.225Z,84.94
2018-05-10T01:16:44.878Z,85.08
2018-05-10T01:19:12.528Z,84.74
2018-05-10T01:21:40.117Z,86.10
2018-05-10T01:24:07.721Z,85.68
2018-05-10T01:26:35.314Z,85.23
2018-05-10T01:29:02.947Z,84.84
2018-05-10T01:31:30.565Z,84.69
2018-05-10T01:33:58.153Z,84.90
2018-05-10T01:36:25.754Z,85.55
2018-05-10T01:38:53.373Z,86.19
2018-05-10T01:41:20.957Z,86.29
2018-05-10T01:43:48.557Z,86.17
2018-05-10T01:46:16.181Z,86.16
2018-05-10T01:48:43.773Z,86.39
2018-05-10T01:51:11.353Z,86.27
2018-05-10T01:53:38.993Z,85.72
2018-05-10T01:56:06.586Z,85.20
2018-05-10T01:58:34.182Z,85.17
2018-05-10T02:01:01.773Z,85.30
2018-05-10T02:03:29.397Z,85.07
2018-05-10T02:05:56.985Z,85.16
2018-05-10T02:08:24.569Z,85.25
2018-05-10T02:10:52.205Z,85.32
2018-05-10T02:13:19.793Z,85.88
2018-05-10T02:15:47.392Z,85.20
2018-05-10T02:18:15.073Z,83.53
2018-05-10T02:20:42.677Z,84.51
2018-05-10T02:23:10.285Z,83.25
2018-05-10T02:25:37.928Z,82.23
2018-05-10T02:28:05.517Z,82.03
2018-05-10T02:30:33.122Z,81.67
2018-05-10T02:33:00.751Z,82.57
2018-05-10T02:35:28.376Z,82.14
2018-05-10T02:37:55.978Z,81.93
2018-05-10T02:40:23.583Z,81.89
2018-05-10T02:42:51.207Z,81.50
2018-05-10T02:45:18.801Z,80.75
2018-05-10T02:47:46.421Z,81.13
2018-05-10T02:50:14.033Z,77.79
2018-05-10T02:52:41.625Z,79.50
2018-05-10T02:55:09.285Z,80.74
2018-05-10T02:57:37.002Z,80.51
2018-05-10T03:00:04.721Z,80.15
2018-05-10T03:02:32.429Z,80.92
2018-05-10T03:05:00.138Z,81.29
2018-05-10T03:07:27.817Z,79.99
2018-05-10T03:09:55.462Z,80.73
2018-05-10T03:12:23.123Z,81.65
2018-05-10T03:14:50.785Z,83.47
2018-05-10T03:17:18.483Z,83.79
2018-05-10T03:19:46.170Z,82.57
2018-05-10T03:22:13.873Z,82.03
2018-05-10T03:24:41.513Z,81.32
2018-05-10T03:27:09.124Z,81.51
2018-05-10T03:29:36.785Z,80.33
2018-05-10T03:32:04.465Z,80.07
2018-05-10T03:34:32.080Z,81.23
2018-05-10T03:36:59.713Z,80.96
2018-05-10T03:39:27.297Z,80.89
2018-05-10T03:41:54.893Z,79.47
2018-05-10T03:44:22.561Z,77.87
2018-05-10T03:46:50.164Z,76.56
2018-05-10T03:49:17.853Z,77.85
2018-05-10T03:51:45.446Z,77.90
2018-05-10T03:54:13.070Z,77.24
2018-05-10T03:56:40.694Z,77.39
2018-05-10T03:59:08.281Z,77.02
2018-05-10T04:01:35.868Z,77.49
2018-05-10T04:07:15.492Z,77.16
2018-05-10T04:09:54.647Z,77.94
2018-05-10T04:12:22.236Z,77.69
2018-05-10T04:14:49.854Z,79.18
2018-05-10T04:17:17.444Z,79.57
2018-05-10T04:19:45.036Z,77.03
2018-05-10T04:22:12.705Z,78.37
2018-05-10T04:24:40.309Z,79.70
2018-05-10T04:27:07.929Z,79.61
2018-05-10T04:29:35.521Z,77.21
2018-05-10T04:32:03.149Z,76.24
2018-05-10T04:34:30.837Z,77.13
2018-05-10T04:36:58.441Z,78.39
2018-05-10T04:39:26.025Z,77.61
2018-05-10T04:41:53.665Z,77.13
2018-05-10T04:44:21.249Z,75.06
2018-05-10T04:46:48.901Z,73.94
2018-05-10T04:49:16.533Z,73.37
2018-05-10T04:51:44.163Z,72.86
2018-05-10T04:54:11.789Z,72.30
2018-05-10T04:56:39.385Z,72.24
2018-05-10T04:59:06.977Z,72.05
2018-05-10T05:01:34.603Z,72.20
2018-05-10T05:04:02.193Z,71.60
2018-05-10T05:06:29.798Z,70.12
2018-05-10T05:08:57.432Z,70.16
2018-05-10T05:11:25.045Z,70.94
2018-05-10T05:13:52.628Z,69.99
2018-05-10T05:16:20.275Z,70.32
2018-05-10T05:18:47.864Z,70.21
2018-05-10T05:21:15.453Z,69.95
2018-05-10T05:23:43.097Z,68.92
2018-05-10T05:26:10.690Z,67.90
2018-05-10T05:28:38.317Z,69.12
2018-05-10T05:31:05.912Z,66.73
2018-05-10T05:33:33.513Z,67.58
2018-05-10T05:36:01.134Z,66.60
2018-05-10T05:38:28.730Z,67.43
2018-05-10T05:40:56.395Z,66.31
2018-05-10T05:43:24.036Z,65.64
2018-05-10T05:45:51.641Z,65.45
2018-05-10T05:48:19.311Z,64.91
2018-05-10T05:50:46.910Z,65.33
2018-05-10T05:53:14.501Z,64.49
2018-05-10T05:55:42.133Z,65.67
2018-05-10T05:58:09.721Z,64.73
2018-05-10T06:00:37.367Z,64.88
2018-05-10T06:03:04.997Z,64.30
2018-05-10T06:05:32.582Z,64.71
2018-05-10T06:08:00.165Z,65.07
2018-05-10T06:10:27.821Z,64.33
2018-05-10T06:12:55.439Z,63.59
2018-05-10T06:15:23.102Z,62.87
2018-05-10T06:17:50.777Z,62.06
2018-05-10T06:20:18.435Z,62.51
2018-05-10T06:22:46.018Z,61.03
2018-05-10T06:25:13.719Z,62.19
2018-05-10T06:27:41.286Z,60.64
2018-05-10T06:30:08.891Z,58.73
2018-05-10T06:32:36.567Z,61.48
2018-05-10T06:35:05.093Z,59.88
2018-05-10T06:37:32.698Z,57.36
2018-05-10T06:40:00.320Z,57.57
2018-05-10T06:42:27.926Z,56.90
2018-05-10T06:44:55.532Z,57.46
2018-05-10T06:47:23.319Z,56.42
2018-05-10T06:49:51.022Z,57.37
2018-05-10T06:52:18.761Z,56.26
2018-05-10T06:54:46.433Z,56.84
2018-05-10T06:57:14.190Z,57.94
2018-05-10T06:59:41.918Z,58.29
2018-05-10T07:02:09.630Z,58.95
2018-05-10T07:04:37.300Z,59.30
2018-05-10T07:07:04.921Z,58.86
2018-05-10T07:09:32.695Z,58.46
2018-05-10T07:12:00.373Z,59.95
2018-05-10T07:14:28.025Z,59.88
2018-05-10T07:16:55.709Z,59.33
2018-05-10T07:19:23.377Z,59.18
2018-05-10T07:21:50.973Z,58.14
2018-05-10T07:24:18.609Z,61.58
2018-05-10T07:26:46.202Z,59.55
2018-05-10T07:29:13.789Z,58.17
2018-05-10T07:31:41.398Z,57.31
2018-05-10T07:34:08.999Z,56.43
2018-05-10T07:36:36.645Z,57.63
2018-05-10T07:39:04.362Z,58.27
2018-05-10T07:41:32.043Z,59.48
2018-05-10T07:43:59.720Z,60.59
2018-05-10T07:46:27.379Z,60.43
2018-05-10T07:48:55.006Z,59.45
2018-05-10T07:51:22.677Z,62.04
2018-05-10T07:53:50.366Z,61.21
2018-05-10T07:56:18.010Z,60.87
2018-05-10T07:58:45.630Z,58.77
2018-05-10T08:01:13.250Z,59.79
2018-05-10T08:03:40.894Z,58.61
2018-05-10T08:06:08.591Z,58.43
2018-05-10T08:08:36.306Z,58.83
2018-05-10T08:11:03.978Z,59.88
2018-05-10T08:13:31.674Z,60.38
2018-05-10T08:15:59.371Z,60.83
2018-05-10T08:18:27.059Z,59.72
2018-05-10T08:20:54.857Z,59.42
2018-05-10T08:23:22.454Z,59.68
2018-05-10T08:25:50.125Z,60.09
2018-05-10T08:28:17.843Z,60.56
2018-05-10T08:30:45.518Z,60.00
2018-05-10T08:33:13.202Z,59.18
2018-05-10T08:35:40.942Z,60.32
2018-05-10T08:38:08.598Z,60.06
2018-05-10T08:40:36.272Z,60.59
2018-05-10T08:43:03.978Z,58.58
2018-05-10T08:45:31.673Z,59.12
2018-05-10T08:47:59.345Z,58.84
2018-05-10T08:50:27.054Z,58.65
2018-05-10T08:52:54.673Z,57.34
2018-05-10T08:55:22.377Z,57.15
2018-05-10T08:57:49.987Z,56.47
2018-05-10T09:00:17.598Z,56.11
2018-05-10T09:02:45.246Z,53.92
2018-05-10T09:05:12.871Z,54.69
2018-05-10T09:07:40.509Z,55.66
2018-05-10T09:10:08.159Z,54.12
2018-05-10T09:12:35.754Z,52.46
2018-05-10T09:15:03.352Z,51.28
2018-05-10T09:17:31.066Z,50.61
2018-05-10T09:19:58.649Z,50.71
2018-05-10T09:22:26.260Z,52.12
2018-05-10T09:24:53.857Z,50.23
2018-05-10T09:27:21.489Z,49.29
2018-05-10T09:29:49.081Z,49.63
2018-05-10T09:32:16.677Z,47.35
2018-05-10T09:34:44.289Z,46.68
2018-05-10T09:37:11.885Z,44.93
2018-05-10T09:39:39.518Z,44.40
2018-05-10T09:42:07.110Z,44.72
2018-05-10T09:44:34.697Z,45.91
2018-05-10T09:47:02.290Z,47.78
2018-05-10T09:49:29.881Z,46.51
2018-05-10T09:51:57.552Z,46.30
2018-05-10T09:54:25.142Z,47.99
2018-05-10T09:56:52.727Z,47.68
2018-05-10T09:59:20.375Z,50.26
2018-05-10T10:01:47.960Z,51.18
2018-05-10T10:04:15.589Z,51.83
2018-05-10T10:06:43.210Z,51.49
2018-05-10T10:09:10.801Z,52.03
2018-05-10T10:11:38.440Z,55.20
2018-05-10T10:14:06.022Z,55.05
2018-05-10T10:16:33.704Z,56.68
2018-05-10T10:19:01.398Z,56.25
2018-05-10T10:21:29.031Z,56.69
2018-05-10T10:23:56.721Z,57.63
2018-05-10T10:26:24.523Z,56.64
2018-05-10T10:28:52.149Z,59.75
2018-05-10T10:31:19.777Z,61.02
2018-05-10T10:33:47.440Z,62.36
2018-05-10T10:36:15.066Z,64.14
2018-05-10T10:38:42.709Z,65.06
2018-05-10T10:41:10.450Z,65.75
2018-05-10T10:43:38.077Z,66.32
2018-05-10T10:46:05.778Z,66.11
2018-05-10T10:48:33.458Z,67.17
2018-05-10T10:51:01.097Z,67.95
2018-05-10T10:53:28.741Z,67.55
2018-05-10T10:55:56.422Z,67.59
2018-05-10T10:58:24.045Z,67.77
2018-05-10T11:00:51.697Z,68.78
2018-05-10T11:03:19.386Z,71.35
2018-05-10T11:05:47.206Z,76.84
2018-05-10T11:08:14.905Z,80.26
2018-05-10T11:10:42.501Z,82.89
2018-05-10T11:13:10.090Z,81.43
2018-05-10T11:15:37.729Z,78.87
2018-05-10T11:18:05.326Z,78.98
2018-05-10T11:20:32.914Z,78.70
2018-05-10T11:23:00.590Z,79.69
2018-05-10T11:25:28.239Z,80.41
2018-05-10T11:27:55.866Z,79.76
2018-05-10T11:30:23.485Z,81.35
2018-05-10T11:32:51.150Z,81.88
2018-05-10T11:35:18.911Z,81.36
2018-05-10T11:37:46.752Z,79.56
2018-05-10T11:40:14.396Z,79.37
2018-05-10T11:42:42.042Z,83.29
2018-05-10T11:45:09.770Z,81.74
2018-05-10T11:47:37.402Z,83.35
2018-05-10T11:50:04.986Z,84.98
